Time;durP1;ratioP1;P1;durP2;ratioP2;P2;SDS_P1;SDS_P2;PMS_P1;PMS_P2;Temp;Humidity;BMP_temperature;BMP_pressure;BME280_temperature;BME280_humidity;BME280_pressure;Samples;Min_cycle;Max_cycle;Signal;HPM_P1;HPM_P2
2023/01/25 00:02:21;;;;;;;76.75;43.28;;;4.00;99.90;;;;;;5046660;28;20020;-63
2023/01/25 00:04:47;;;;;;;81.35;45.35;;;3.90;99.90;;;;;;5063713;28;20035;-63
2023/01/25 00:07:13;;;;;;;77.18;43.80;;;3.90;99.90;;;;;;5047367;28;20125;-67
2023/01/25 00:09:39;;;;;;;83.22;45.10;;;3.90;99.90;;;;;;5080540;28;20454;-63
2023/01/25 00:12:05;;;;;;;79.28;44.20;;;4.00;99.90;;;;;;5080802;28;20028;-63
2023/01/25 00:14:30;;;;;;;74.72;41.90;;;4.00;99.90;;;;;;5080670;28;20046;-63
2023/01/25 00:16:56;;;;;;;77.57;42.83;;;3.90;99.90;;;;;;5047109;28;20468;-63
2023/01/25 00:19:22;;;;;;;80.05;44.65;;;3.80;99.90;;;;;;5080325;28;20032;-64
2023/01/25 00:21:48;;;;;;;77.95;43.47;;;3.80;99.90;;;;;;5046346;28;20097;-63
2023/01/25 00:24:14;;;;;;;76.05;42.63;;;3.90;99.90;;;;;;5063493;28;20322;-63
2023/01/25 00:26:42;;;;;;;78.25;43.30;;;3.90;99.90;;;;;;5046329;28;20029;-63
2023/01/25 00:29:13;;;;;;;75.47;42.80;;;4.00;99.90;;;;;;5062889;28;20041;-63
2023/01/25 00:31:48;;;;;;;75.65;43.20;;;4.00;99.90;;;;;;5080191;28;20325;-64
2023/01/25 00:34:25;;;;;;;75.55;42.78;;;4.00;99.90;;;;;;5080092;28;20037;-64
2023/01/25 00:37:01;;;;;;;77.60;42.90;;;3.90;99.90;;;;;;5080049;28;20035;-63
2023/01/25 00:39:27;;;;;;;72.88;42.03;;;3.90;99.90;;;;;;5062469;28;20056;-63
2023/01/25 00:41:54;;;;;;;76.35;41.95;;;3.60;99.90;;;;;;5063163;28;20360;-63
2023/01/25 00:44:20;;;;;;;74.82;43.00;;;3.60;99.90;;;;;;5062442;28;20029;-63
2023/01/25 00:46:47;;;;;;;76.35;42.35;;;3.60;99.90;;;;;;5045793;28;20388;-63
2023/01/25 00:49:32;;;;;;;76.88;42.50;;;3.50;99.90;;;;;;5062493;28;20315;-63
2023/01/25 00:51:58;;;;;;;73.32;41.08;;;3.60;99.90;;;;;;5078608;28;20060;-63
2023/01/25 00:54:25;;;;;;;77.00;43.22;;;3.70;99.90;;;;;;5044714;28;20105;-63
2023/01/25 00:56:52;;;;;;;74.03;42.00;;;3.70;99.90;;;;;;5061059;28;20029;-64
2023/01/25 00:59:18;;;;;;;73.50;41.65;;;3.70;99.90;;;;;;5078488;28;20047;-63
2023/01/25 01:01:45;;;;;;;75.35;42.50;;;3.70;99.90;;;;;;5060994;28;20036;-63
2023/01/25 01:04:11;;;;;;;74.47;41.90;;;3.60;99.90;;;;;;5044472;28;20395;-64
2023/01/25 01:06:41;;;;;;;74.20;43.22;;;3.60;99.90;;;;;;5077994;28;20044;-63
2023/01/25 01:09:12;;;;;;;74.45;42.50;;;3.70;99.90;;;;;;5060812;28;20117;-64
2023/01/25 01:11:37;;;;;;;74.20;42.25;;;3.70;99.90;;;;;;5060889;28;20039;-63
2023/01/25 01:14:03;;;;;;;70.45;41.05;;;3.80;99.90;;;;;;5060791;28;20399;-64
2023/01/25 01:16:30;;;;;;;76.47;41.78;;;3.70;99.90;;;;;;5078222;28;20056;-63
2023/01/25 01:18:56;;;;;;;66.70;38.85;;;3.60;99.90;;;;;;5078110;28;20345;-64
2023/01/25 01:21:22;;;;;;;74.72;40.78;;;3.60;99.90;;;;;;5060883;28;20040;-63
2023/01/25 01:23:48;;;;;;;73.78;40.92;;;3.40;99.90;;;;;;5078108;28;20028;-63
2023/01/25 01:26:18;;;;;;;69.38;40.08;;;3.40;99.90;;;;;;5078084;28;20052;-63
2023/01/25 01:28:44;;;;;;;70.45;39.90;;;3.50;99.90;;;;;;5078029;28;20059;-63
2023/01/25 01:31:16;;;;;;;68.55;38.90;;;3.40;99.90;;;;;;5060538;28;20120;-64
2023/01/25 01:33:52;;;;;;;70.18;40.75;;;3.40;99.90;;;;;;5060464;28;20117;-63
2023/01/25 01:36:20;;;;;;;71.93;38.90;;;3.30;99.90;;;;;;5060553;28;20404;-63
2023/01/25 01:38:46;;;;;;;66.60;37.78;;;3.30;99.90;;;;;;5060832;28;20033;-63
2023/01/25 01:41:14;;;;;;;67.50;38.30;;;3.20;99.90;;;;;;5043836;28;20098;-63
2023/01/25 01:43:40;;;;;;;68.65;39.97;;;3.10;99.90;;;;;;5060331;28;20020;-64
2023/01/25 01:46:16;;;;;;;67.10;38.25;;;3.00;99.90;;;;;;5028060;28;20120;-63
2023/01/25 01:48:59;;;;;;;65.47;37.92;;;3.10;99.90;;;;;;5060328;28;20029;-65
2023/01/25 01:52:00;;;;;;;70.75;39.03;;;3.20;99.90;;;;;;5017911;28;1234391;-64
2023/01/25 01:54:37;;;;;;;68.95;37.40;;;3.20;99.90;;;;;;5061140;28;20052;-63
2023/01/25 01:57:10;;;;;;;67.50;38.35;;;3.20;99.90;;;;;;5061301;28;20052;-62
2023/01/25 02:00:03;;;;;;;67.25;38.30;;;3.10;99.90;;;;;;5060971;28;20028;-64
2023/01/25 02:02:39;;;;;;;68.05;37.33;;;3.10;99.90;;;;;;5062574;28;20051;-62
2023/01/25 02:05:11;;;;;;;67.55;38.28;;;3.00;99.90;;;;;;5044445;28;20036;-64
2023/01/25 02:07:39;;;;;;;70.65;38.83;;;3.10;99.90;;;;;;5060984;28;20141;-63
2023/01/25 02:10:10;;;;;;;72.30;38.47;;;3.20;99.90;;;;;;5044528;28;20029;-64
2023/01/25 02:12:36;;;;;;;68.70;38.63;;;3.30;99.90;;;;;;5044308;28;20077;-64
2023/01/25 02:15:03;;;;;;;66.70;38.28;;;3.30;99.90;;;;;;5060883;28;20420;-63
2023/01/25 02:17:35;;;;;;;69.72;38.80;;;3.20;99.90;;;;;;5060858;28;20423;-64
2023/01/25 02:20:04;;;;;;;69.88;37.60;;;3.00;99.90;;;;;;5077326;28;20029;-63
2023/01/25 02:22:59;;;;;;;68.47;39.55;;;3.10;99.90;;;;;;5044123;28;20028;-64
2023/01/25 02:25:25;;;;;;;74.25;38.60;;;3.10;99.90;;;;;;5055010;28;20028;-63
2023/01/25 02:27:59;;;;;;;71.07;39.28;;;3.20;99.90;;;;;;5060778;28;20094;-63
2023/01/25 02:30:26;;;;;;;70.18;38.85;;;3.10;99.90;;;;;;5060480;28;20278;-63
2023/01/25 02:32:52;;;;;;;66.95;38.03;;;3.10;99.90;;;;;;5078139;28;20066;-63
2023/01/25 02:35:23;;;;;;;66.20;37.97;;;2.90;99.90;;;;;;5077761;28;20028;-64
2023/01/25 02:37:49;;;;;;;70.93;39.22;;;3.00;99.90;;;;;;5060284;28;20115;-63
2023/01/25 02:40:19;;;;;;;77.20;40.65;;;3.10;99.90;;;;;;5060381;28;20029;-63
2023/01/25 02:42:45;;;;;;;73.50;40.47;;;3.10;99.90;;;;;;5043759;28;20033;-63
2023/01/25 02:45:16;;;;;;;72.65;39.85;;;3.10;99.90;;;;;;5043877;28;20299;-63
2023/01/25 02:47:42;;;;;;;68.25;37.92;;;3.20;99.90;;;;;;5060182;28;20101;-63
2023/01/25 02:50:09;;;;;;;70.82;40.42;;;3.20;99.90;;;;;;5043499;28;20056;-63
2023/01/25 02:52:35;;;;;;;67.45;38.55;;;3.20;99.90;;;;;;5060240;28;20033;-63
2023/01/25 02:55:00;;;;;;;70.60;38.15;;;3.00;99.90;;;;;;5060243;28;20036;-63
2023/01/25 02:57:27;;;;;;;69.28;38.13;;;3.00;99.90;;;;;;5059956;28;20419;-63
2023/01/25 02:59:52;;;;;;;74.50;40.42;;;3.10;99.90;;;;;;5059930;28;20119;-63
2023/01/25 03:02:18;;;;;;;69.63;38.83;;;3.20;99.90;;;;;;5027024;28;20303;-63
2023/01/25 03:04:45;;;;;;;73.40;41.22;;;3.30;99.90;;;;;;5027046;28;20289;-63
2023/01/25 03:07:11;;;;;;;69.47;38.97;;;3.30;99.90;;;;;;5059841;28;20043;-63
2023/01/25 03:09:37;;;;;;;74.80;39.80;;;3.40;99.90;;;;;;5043259;28;20032;-63
2023/01/25 03:12:03;;;;;;;71.97;39.58;;;3.30;99.90;;;;;;5026885;28;20303;-64
2023/01/25 03:14:30;;;;;;;73.00;39.88;;;3.20;99.90;;;;;;5043504;28;20090;-63
2023/01/25 03:16:56;;;;;;;70.88;39.70;;;2.90;99.90;;;;;;5059782;28;20335;-63
2023/01/25 03:19:24;;;;;;;75.63;40.20;;;2.60;99.90;;;;;;5043329;28;20372;-63
2023/01/25 03:21:50;;;;;;;70.95;38.33;;;2.60;99.90;;;;;;5026602;28;20120;-63
2023/01/25 03:24:16;;;;;;;68.60;37.72;;;2.70;99.90;;;;;;5043153;28;20400;-64
2023/01/25 03:29:53;;;;;;;70.90;37.88;;;2.40;99.90;;;;;;5041492;28;20036;-63
2023/01/25 03:32:22;;;;;;;72.82;37.60;;;2.50;99.90;;;;;;5043430;28;20111;-63
2023/01/25 03:34:48;;;;;;;74.90;39.47;;;2.60;99.90;;;;;;5059432;28;20033;-63
2023/01/25 03:37:14;;;;;;;74.45;39.70;;;2.80;99.90;;;;;;5059609;28;20032;-64
2023/01/25 03:39:42;;;;;;;71.00;38.50;;;2.80;99.90;;;;;;5043033;28;20040;-63
2023/01/25 03:42:08;;;;;;;75.80;41.28;;;2.90;99.90;;;;;;5059630;28;20037;-63
2023/01/25 03:44:35;;;;;;;71.88;39.17;;;3.00;99.90;;;;;;5043592;28;20319;-63
2023/01/25 03:47:01;;;;;;;76.80;40.83;;;3.00;99.90;;;;;;5042798;28;20039;-63
2023/01/25 03:49:28;;;;;;;70.03;38.92;;;3.10;99.90;;;;;;5042827;28;20047;-64
2023/01/25 03:51:56;;;;;;;67.53;38.83;;;3.10;99.90;;;;;;5026321;28;20032;-63
2023/01/25 03:54:27;;;;;;;75.38;40.25;;;3.10;99.90;;;;;;5059262;28;20423;-63
2023/01/25 03:56:53;;;;;;;74.75;40.53;;;3.00;99.90;;;;;;5042698;28;20036;-63
2023/01/25 03:59:24;;;;;;;73.05;40.03;;;3.10;99.90;;;;;;5043238;28;20037;-64
2023/01/25 04:01:50;;;;;;;71.45;39.33;;;3.00;99.90;;;;;;5059158;28;20137;-64
2023/01/25 04:04:17;;;;;;;73.70;40.47;;;3.00;99.90;;;;;;5042749;28;20036;-64
2023/01/25 04:06:45;;;;;;;70.57;38.72;;;3.00;99.90;;;;;;5059504;28;20165;-64
2023/01/25 04:09:13;;;;;;;72.80;40.33;;;3.00;99.90;;;;;;5059173;28;20060;-63
2023/01/25 04:11:43;;;;;;;74.05;39.83;;;3.00;99.90;;;;;;5059852;28;20045;-63
2023/01/25 04:14:10;;;;;;;75.82;40.10;;;2.90;99.90;;;;;;5058971;28;20117;-63
2023/01/25 04:16:43;;;;;;;72.70;40.53;;;2.90;99.90;;;;;;5043446;28;20036;-63
2023/01/25 04:19:28;;;;;;;75.00;40.33;;;3.00;99.90;;;;;;5059050;28;20086;-63
2023/01/25 04:21:57;;;;;;;77.03;41.88;;;3.10;99.90;;;;;;5076439;28;20100;-63
2023/01/25 04:24:27;;;;;;;78.75;41.35;;;3.10;99.90;;;;;;5058957;28;20108;-63
2023/01/25 04:26:53;;;;;;;75.80;41.35;;;3.10;99.90;;;;;;5058987;28;20054;-63
2023/01/25 04:29:19;;;;;;;75.00;40.28;;;3.00;99.90;;;;;;5058987;28;20036;-63
2023/01/25 04:31:45;;;;;;;76.60;42.15;;;3.10;99.90;;;;;;5058870;28;20086;-63
2023/01/25 04:34:11;;;;;;;74.30;40.30;;;3.10;99.90;;;;;;5058910;28;20032;-63
2023/01/25 04:36:37;;;;;;;75.63;40.47;;;3.10;99.90;;;;;;5042270;28;20036;-63
2023/01/25 04:39:03;;;;;;;74.85;41.60;;;3.10;99.90;;;;;;5058790;28;20059;-64
2023/01/25 04:41:29;;;;;;;73.88;40.08;;;3.10;99.90;;;;;;5042613;28;20033;-63
2023/01/25 04:43:56;;;;;;;71.70;40.03;;;3.00;99.90;;;;;;5046084;28;20033;-63
2023/01/25 04:46:23;;;;;;;77.70;42.83;;;2.90;99.90;;;;;;5062716;28;20438;-63
2023/01/25 04:48:49;;;;;;;78.35;41.40;;;2.80;99.90;;;;;;5062577;28;20399;-63
2023/01/25 04:51:16;;;;;;;79.65;41.45;;;2.80;99.90;;;;;;5062246;28;20110;-63
2023/01/25 04:53:42;;;;;;;76.05;40.95;;;2.70;99.90;;;;;;5062645;28;20028;-63
2023/01/25 04:56:09;;;;;;;79.18;41.35;;;2.60;99.90;;;;;;5045825;28;20025;-63
2023/01/25 04:58:51;;;;;;;72.75;40.42;;;2.70;99.90;;;;;;5064554;28;20276;-63
2023/01/25 05:01:17;;;;;;;73.25;39.33;;;2.60;99.90;;;;;;5062150;28;20029;-63
2023/01/25 05:03:43;;;;;;;74.68;39.83;;;2.40;99.90;;;;;;5062211;28;20415;-63
2023/01/25 05:06:29;;;;;;;79.78;41.67;;;2.30;99.90;;;;;;5040814;28;20075;-62
2023/01/25 05:08:55;;;;;;;75.65;39.63;;;2.30;99.90;;;;;;5062076;28;20028;-62
2023/01/25 05:11:21;;;;;;;77.53;40.50;;;2.40;99.90;;;;;;5062298;28;20324;-61
2023/01/25 05:13:59;;;;;;;73.70;38.35;;;2.20;99.90;;;;;;5062085;28;20032;-61
2023/01/25 05:16:29;;;;;;;80.55;39.30;;;1.70;99.90;;;;;;5062667;28;20094;-61
2023/01/25 05:18:55;;;;;;;77.18;38.72;;;1.40;99.90;;;;;;5045262;28;20331;-61
2023/01/25 05:24:13;;;;;;;76.20;39.60;;;1.40;99.90;;;;;;5061878;28;20328;-62
2023/01/25 05:29:23;;;;;;;76.70;39.97;;;2.00;99.90;;;;;;5047645;28;20041;-62
2023/01/25 05:31:58;;;;;;;73.82;38.88;;;2.10;99.90;;;;;;5061982;28;20067;-62
2023/01/25 05:34:25;;;;;;;81.35;40.70;;;2.20;99.90;;;;;;5079702;28;20033;-62
2023/01/25 05:36:51;;;;;;;77.68;40.53;;;2.20;99.90;;;;;;5044992;28;20039;-61
2023/01/25 05:39:18;;;;;;;77.15;39.25;;;2.30;99.90;;;;;;5044916;28;20056;-61
2023/01/25 05:41:46;;;;;;;75.22;39.63;;;2.30;99.90;;;;;;5061383;28;20043;-62
2023/01/25 05:44:13;;;;;;;73.68;40.00;;;2.40;99.90;;;;;;5061342;28;20040;-62
2023/01/25 05:46:44;;;;;;;77.97;39.58;;;2.40;99.90;;;;;;5061365;28;20311;-61
2023/01/25 05:49:10;;;;;;;75.80;40.08;;;2.50;99.90;;;;;;5061307;28;20041;-61
2023/01/25 05:51:38;;;;;;;74.45;39.95;;;2.50;99.90;;;;;;5060978;28;20048;-62
2023/01/25 05:54:06;;;;;;;78.00;40.85;;;2.60;99.90;;;;;;5059864;28;20407;-62
2023/01/25 05:56:32;;;;;;;73.55;38.97;;;2.60;99.90;;;;;;5078649;28;20028;-62
2023/01/25 05:59:00;;;;;;;76.30;40.97;;;2.60;99.90;;;;;;5060961;28;20097;-61
2023/01/25 06:01:27;;;;;;;78.82;40.13;;;2.60;99.90;;;;;;5061065;28;20036;-61
2023/01/25 06:03:57;;;;;;;70.78;39.03;;;2.60;99.90;;;;;;5061484;28;20419;-62
2023/01/25 06:06:25;;;;;;;77.53;40.88;;;2.60;99.90;;;;;;5061142;28;20270;-61
2023/01/25 06:08:51;;;;;;;76.20;40.20;;;2.60;99.90;;;;;;5060878;28;20129;-62
2023/01/25 06:11:22;;;;;;;74.55;40.83;;;2.60;99.90;;;;;;5060637;28;20043;-62
2023/01/25 06:13:50;;;;;;;76.72;39.60;;;2.60;99.90;;;;;;5061096;28;20365;-61
2023/01/25 06:16:17;;;;;;;77.30;41.20;;;2.70;99.90;;;;;;5060483;28;20025;-62
2023/01/25 06:18:58;;;;;;;79.97;41.88;;;2.80;99.90;;;;;;5049072;28;20102;-61
2023/01/25 06:21:50;;;;;;;76.95;40.78;;;2.80;99.90;;;;;;5073838;28;20036;-61
2023/01/25 06:24:16;;;;;;;79.57;41.38;;;2.70;99.90;;;;;;5060820;28;20043;-61
2023/01/25 06:26:42;;;;;;;83.25;42.40;;;2.60;99.90;;;;;;5027544;28;20087;-62
2023/01/25 06:29:08;;;;;;;77.15;41.83;;;2.50;99.90;;;;;;5077948;28;20037;-61
2023/01/25 06:31:34;;;;;;;81.25;42.75;;;2.70;99.90;;;;;;5060645;28;20044;-62
2023/01/25 06:34:03;;;;;;;84.00;42.20;;;2.70;99.90;;;;;;5078077;28;20156;-62
2023/01/25 06:36:30;;;;;;;77.72;41.88;;;2.70;99.90;;;;;;5060392;28;20036;-61
2023/01/25 06:38:55;;;;;;;80.68;41.53;;;2.60;99.90;;;;;;5060206;28;20310;-61
2023/01/25 06:41:22;;;;;;;75.82;41.15;;;2.70;99.90;;;;;;5043651;28;20310;-64
2023/01/25 06:43:51;;;;;;;76.97;41.45;;;2.60;99.90;;;;;;5060473;28;20403;-61
2023/01/25 06:46:18;;;;;;;79.88;40.75;;;2.80;99.90;;;;;;5077681;28;20292;-61
2023/01/25 06:48:44;;;;;;;80.25;41.78;;;2.40;99.90;;;;;;5043578;28;20032;-62
2023/01/25 06:51:12;;;;;;;76.50;40.78;;;2.20;99.90;;;;;;5077353;28;20068;-62
2023/01/25 06:53:41;;;;;;;81.43;41.90;;;2.30;99.90;;;;;;5060158;28;20056;-62
2023/01/25 06:56:17;;;;;;;75.78;40.10;;;2.30;99.90;;;;;;5077767;28;20079;-62
2023/01/25 06:58:43;;;;;;;78.18;40.63;;;2.30;99.90;;;;;;5077300;28;20044;-63
2023/01/25 07:01:20;;;;;;;82.53;42.35;;;2.50;99.90;;;;;;5060008;28;20082;-63
2023/01/25 07:03:55;;;;;;;77.78;40.33;;;2.80;99.90;;;;;;5059889;28;20020;-62
2023/01/25 07:06:22;;;;;;;79.43;40.50;;;2.60;99.90;;;;;;5059650;28;20031;-61
2023/01/25 07:08:48;;;;;;;79.13;40.63;;;2.50;99.90;;;;;;5077086;28;20041;-62
2023/01/25 07:11:15;;;;;;;79.40;42.03;;;2.50;99.90;;;;;;5059802;28;20059;-63
2023/01/25 07:13:44;;;;;;;79.47;41.65;;;2.50;99.90;;;;;;5043172;28;20277;-62
2023/01/25 07:16:12;;;;;;;77.60;40.13;;;2.70;99.90;;;;;;5077020;28;20036;-62
2023/01/25 07:18:39;;;;;;;76.32;40.88;;;2.60;99.90;;;;;;5077034;28;20060;-62
2023/01/25 07:21:14;;;;;;;72.20;37.65;;;2.50;99.90;;;;;;5077194;28;20107;-62
2023/01/25 07:23:40;;;;;;;76.15;39.20;;;2.40;99.90;;;;;;5077054;28;20021;-62
2023/01/25 07:26:16;;;;;;;71.57;38.65;;;2.40;99.90;;;;;;5077115;28;20081;-63
2023/01/25 07:28:43;;;;;;;75.68;39.53;;;2.50;99.90;;;;;;5059538;28;20127;-64
2023/01/25 07:31:08;;;;;;;81.40;42.13;;;2.60;99.90;;;;;;5076892;28;20103;-63
2023/01/25 07:33:34;;;;;;;76.35;40.90;;;4.20;99.90;;;;;;5059718;28;20064;-63
2023/01/25 07:36:06;;;;;;;76.85;40.67;;;3.70;99.90;;;;;;5026605;28;20047;-62
2023/01/25 07:38:32;;;;;;;82.57;42.43;;;3.50;99.90;;;;;;5059371;28;20292;-63
2023/01/25 07:40:58;;;;;;;71.13;38.70;;;3.30;99.90;;;;;;5042820;28;20029;-62
2023/01/25 07:43:25;;;;;;;76.03;41.00;;;3.30;99.90;;;;;;5043078;28;20090;-63
2023/01/25 07:45:51;;;;;;;70.18;36.72;;;3.10;99.90;;;;;;5059273;28;20031;-63
2023/01/25 07:48:19;;;;;;;76.30;41.40;;;3.50;99.90;;;;;;5059524;28;20071;-63
2023/01/25 07:51:10;;;;;;;77.43;39.47;;;3.20;99.90;;;;;;5058937;28;20045;-63
2023/01/25 07:53:33;;;;;;;75.13;39.75;;;3.20;99.90;;;;;;5062233;28;20097;-62
2023/01/25 07:55:59;;;;;;;78.78;39.88;;;3.10;99.90;;;;;;5076381;28;20064;-63
2023/01/25 07:58:25;;;;;;;78.95;41.17;;;3.00;99.90;;;;;;5076393;28;20040;-63
2023/01/25 08:00:51;;;;;;;77.20;40.40;;;2.90;99.90;;;;;;5059252;28;20025;-63
2023/01/25 08:03:20;;;;;;;76.13;40.65;;;3.00;99.90;;;;;;5059048;28;20036;-62
2023/01/25 08:05:47;;;;;;;77.55;41.58;;;3.00;99.90;;;;;;5059156;28;20028;-64
2023/01/25 08:08:13;;;;;;;77.32;40.70;;;3.00;99.90;;;;;;5059193;28;20072;-64
2023/01/25 08:10:39;;;;;;;75.30;40.25;;;3.00;99.90;;;;;;5059299;28;20043;-64
2023/01/25 08:13:05;;;;;;;74.95;38.97;;;2.90;99.90;;;;;;5076694;28;20032;-63
2023/01/25 08:15:31;;;;;;;73.13;39.03;;;3.00;99.90;;;;;;5059290;28;20079;-63
2023/01/25 08:18:00;;;;;;;76.15;39.70;;;2.90;99.90;;;;;;5045174;28;20325;-65
2023/01/25 08:20:26;;;;;;;77.35;40.05;;;2.80;99.90;;;;;;5046435;28;20036;-63
2023/01/25 08:22:52;;;;;;;71.03;38.10;;;2.90;99.90;;;;;;5080228;28;20043;-63
2023/01/25 08:25:18;;;;;;;77.07;38.72;;;2.80;99.90;;;;;;5062766;28;20082;-63
2023/01/25 08:27:44;;;;;;;74.80;38.75;;;2.60;99.90;;;;;;5029721;28;20039;-64
2023/01/25 08:30:11;;;;;;;72.57;39.20;;;2.50;99.90;;;;;;5062749;28;20044;-63
2023/01/25 08:32:37;;;;;;;72.45;38.25;;;2.40;99.90;;;;;;5080139;28;20303;-63
2023/01/25 08:35:04;;;;;;;75.70;39.55;;;2.30;99.90;;;;;;5046102;28;20086;-62
2023/01/25 08:37:30;;;;;;;71.03;37.00;;;2.40;99.90;;;;;;5046114;28;20062;-62
2023/01/25 08:39:56;;;;;;;75.72;39.38;;;2.40;99.90;;;;;;5062902;28;20032;-63
2023/01/25 08:42:23;;;;;;;73.28;38.60;;;2.50;99.90;;;;;;5062602;28;20032;-63
2023/01/25 08:44:49;;;;;;;79.22;39.28;;;2.50;99.90;;;;;;5062495;28;20025;-63
2023/01/25 08:47:14;;;;;;;76.85;39.92;;;2.60;99.90;;;;;;5079823;28;20035;-63
2023/01/25 08:49:40;;;;;;;74.40;39.13;;;2.60;99.90;;;;;;5045624;28;20043;-63
2023/01/25 08:52:06;;;;;;;74.97;38.63;;;2.70;99.90;;;;;;5046154;28;20040;-62
2023/01/25 08:54:32;;;;;;;75.45;39.33;;;2.70;99.90;;;;;;5046040;28;20040;-62
2023/01/25 08:56:59;;;;;;;81.47;39.95;;;2.80;99.90;;;;;;5079824;28;20055;-63
2023/01/25 08:59:25;;;;;;;81.05;39.30;;;2.90;99.90;;;;;;5080102;28;20438;-63
2023/01/25 09:01:51;;;;;;;74.93;39.88;;;2.80;99.90;;;;;;5079683;28;20384;-62
2023/01/25 09:04:17;;;;;;;80.65;41.47;;;2.90;99.90;;;;;;5062165;28;20047;-63
2023/01/25 09:06:43;;;;;;;76.68;39.13;;;3.00;99.90;;;;;;5029097;28;20024;-63
2023/01/25 09:09:11;;;;;;;76.70;39.45;;;2.90;99.90;;;;;;5046170;28;20037;-62
2023/01/25 09:11:37;;;;;;;74.55;38.15;;;2.90;99.90;;;;;;5062040;28;20269;-63
2023/01/25 09:14:03;;;;;;;83.35;41.22;;;3.00;99.90;;;;;;5062187;28;20041;-63
2023/01/25 09:16:29;;;;;;;79.97;41.13;;;2.90;99.90;;;;;;5078883;28;20033;-62
2023/01/25 09:18:57;;;;;;;79.85;40.85;;;3.00;99.90;;;;;;5061546;28;20093;-63
2023/01/25 09:21:23;;;;;;;76.88;39.92;;;2.90;99.90;;;;;;5079202;28;20071;-62
2023/01/25 09:23:51;;;;;;;76.53;41.03;;;2.70;99.90;;;;;;5061932;28;20119;-62
2023/01/25 09:26:17;;;;;;;77.05;39.63;;;2.80;99.90;;;;;;5061580;28;20036;-62
2023/01/25 09:28:47;;;;;;;80.10;40.92;;;2.60;99.90;;;;;;5061370;28;20056;-62
2023/01/25 09:31:13;;;;;;;87.75;41.60;;;2.90;99.90;;;;;;5079329;28;20399;-62
2023/01/25 09:33:57;;;;;;;82.50;40.90;;;2.90;99.90;;;;;;5064613;28;20043;-63
2023/01/25 09:36:23;;;;;;;81.60;41.15;;;3.00;99.90;;;;;;5044844;28;20323;-63
2023/01/25 09:38:49;;;;;;;82.03;40.53;;;3.00;99.90;;;;;;5061646;28;20025;-62
2023/01/25 09:41:42;;;;;;;80.45;41.03;;;3.00;99.90;;;;;;5044815;28;20029;-62
2023/01/25 09:44:23;;;;;;;;;;;3.00;99.90;;;;;;5079345;28;20028;-63
2023/01/25 09:47:08;;;;;;;75.80;37.35;;;3.10;99.90;;;;;;5061394;28;19908;-63
2023/01/25 09:49:40;;;;;;;79.32;40.42;;;3.20;99.90;;;;;;5078927;28;20032;-63
2023/01/25 09:52:32;;;;;;;87.63;43.83;;;3.30;99.90;;;;;;5078610;28;20314;-63
2023/01/25 09:54:58;;;;;;;;;;;3.20;99.90;;;;;;5061736;28;20032;-63
2023/01/25 09:57:32;;;;;;;89.70;40.67;;;3.30;99.90;;;;;;5061268;28;19995;-62
2023/01/25 10:00:02;;;;;;;82.50;41.40;;;3.20;99.90;;;;;;5061210;28;20079;-61
2023/01/25 10:03:02;;;;;;;88.20;42.00;;;2.80;99.90;;;;;;5078596;28;20120;-62
2023/01/25 10:05:35;;;;;;;91.80;40.58;;;2.40;99.90;;;;;;5078466;28;20111;-63
2023/01/25 10:08:05;;;;;;;92.15;43.42;;;2.20;99.90;;;;;;5061339;28;20024;-62
2023/01/25 10:10:41;;;;;;;91.38;43.22;;;2.00;99.90;;;;;;5044410;28;20419;-62
2023/01/25 10:13:12;;;;;;;91.75;43.55;;;2.20;99.90;;;;;;5078146;28;20086;-62
2023/01/25 10:15:58;;;;;;;93.55;43.97;;;2.20;99.90;;;;;;5078053;28;20066;-63
2023/01/25 10:18:47;;;;;;;102.72;46.75;;;2.30;99.90;;;;;;5060381;28;20040;-62
2023/01/25 10:21:29;;;;;;;107.30;47.05;;;2.00;99.90;;;;;;5054396;28;20323;-61
2023/01/25 10:24:04;;;;;;;89.43;42.80;;;1.60;99.90;;;;;;5078091;28;20048;-62
2023/01/25 10:26:35;;;;;;;95.60;44.80;;;1.90;99.90;;;;;;5060479;28;20025;-62
2023/01/25 10:29:18;;;;;;;77.50;34.58;;;2.20;99.90;;;;;;5060762;28;20029;-62
2023/01/25 10:31:45;;;;;;;103.22;46.78;;;2.60;99.90;;;;;;5078475;28;20463;-65
2023/01/25 10:34:20;;;;;;;99.43;45.72;;;2.90;99.90;;;;;;5077904;28;20029;-65
2023/01/25 10:37:11;;;;;;;100.22;46.35;;;3.00;99.90;;;;;;5060429;28;20111;-62
2023/01/25 10:39:46;;;;;;;100.78;44.85;;;2.60;99.90;;;;;;5059977;28;20186;-63
2023/01/25 10:42:14;;;;;;;109.03;46.85;;;2.70;99.90;;;;;;5060320;28;20025;-64
2023/01/25 10:44:39;;;;;;;103.43;46.97;;;2.80;99.90;;;;;;5077624;28;20013;-62
2023/01/25 10:47:06;;;;;;;99.50;44.80;;;2.60;99.90;;;;;;5043811;28;20031;-62
2023/01/25 10:49:51;;;;;;;96.53;44.88;;;2.40;99.90;;;;;;5059963;28;20067;-62
2023/01/25 10:52:29;;;;;;;87.18;43.35;;;2.40;99.90;;;;;;5077601;28;20036;-63
2023/01/25 10:55:12;;;;;;;99.63;45.97;;;2.40;99.90;;;;;;5060091;28;20021;-63
2023/01/25 10:57:56;;;;;;;102.45;45.38;;;2.50;99.90;;;;;;5043794;28;20395;-63
2023/01/25 11:00:34;;;;;;;99.95;45.50;;;2.50;99.90;;;;;;5059910;28;20028;-63
2023/01/25 11:03:00;;;;;;;109.68;48.42;;;2.60;99.90;;;;;;5060038;28;20039;-63
2023/01/25 11:05:34;;;;;;;101.28;46.08;;;2.60;99.90;;;;;;5077237;28;20025;-63
2023/01/25 11:08:31;;;;;;;106.18;47.40;;;2.70;99.90;;;;;;5077200;28;20025;-63
2023/01/25 11:10:58;;;;;;;98.47;44.40;;;2.60;99.90;;;;;;5077385;28;20021;-62
2023/01/25 11:13:31;;;;;;;100.47;45.90;;;2.60;99.90;;;;;;5059815;28;20048;-63
2023/01/25 11:16:00;;;;;;;105.55;45.20;;;2.80;99.90;;;;;;5077346;28;20024;-62
2023/01/25 11:18:32;;;;;;;104.85;48.90;;;2.90;99.90;;;;;;5059713;28;20350;-62
2023/01/25 11:21:18;;;;;;;103.75;45.45;;;2.90;99.90;;;;;;5077100;28;20115;-62
2023/01/25 11:23:59;;;;;;;106.07;47.90;;;2.20;99.90;;;;;;5077527;28;20319;-62
2023/01/25 11:26:25;;;;;;;103.78;46.70;;;2.20;99.90;;;;;;5059528;28;20024;-63
2023/01/25 11:29:06;;;;;;;101.82;46.47;;;2.10;99.90;;;;;;5077127;28;20040;-63
2023/01/25 11:31:32;;;;;;;101.82;44.95;;;2.40;99.90;;;;;;5059783;28;20101;-62
2023/01/25 11:33:58;;;;;;;104.88;46.65;;;2.40;99.90;;;;;;5059538;28;20036;-62
2023/01/25 11:36:41;;;;;;;102.13;46.35;;;2.30;99.90;;;;;;5042660;28;20037;-63
2023/01/25 11:39:25;;;;;;;;;;;2.40;99.90;;;;;;5059985;28;20395;-62
2023/01/25 11:42:15;;;;;;;98.70;43.97;;;2.10;99.90;;;;;;5076807;28;19908;-63
2023/01/25 11:45:00;;;;;;;100.80;45.15;;;2.20;99.90;;;;;;5042896;28;20024;-63
2023/01/25 11:47:50;;;;;;;97.38;43.67;;;1.90;99.90;;;;;;5076975;28;20025;-63
2023/01/25 11:50:41;;;;;;;100.75;44.42;;;1.60;99.90;;;;;;5059249;28;20048;-63
2023/01/25 11:53:16;;;;;;;107.00;44.78;;;1.50;99.90;;;;;;5063464;28;20063;-62
2023/01/25 11:55:48;;;;;;;98.28;43.75;;;1.50;99.90;;;;;;5080961;28;20047;-63
2023/01/25 11:58:45;;;;;;;107.68;46.72;;;1.40;99.90;;;;;;5063260;28;20033;-62
2023/01/25 12:01:36;;;;;;;104.32;43.97;;;1.40;99.90;;;;;;5063076;28;20032;-63
2023/01/25 12:04:31;;;;;;;107.80;44.72;;;1.90;99.90;;;;;;5063345;28;20039;-64
2023/01/25 12:07:26;;;;;;;107.63;45.88;;;2.40;99.90;;;;;;5080863;28;20024;-65
2023/01/25 12:10:11;;;;;;;99.95;45.13;;;2.80;99.90;;;;;;5054360;28;20040;-65
2023/01/25 12:12:59;;;;;;;104.63;44.63;;;2.90;99.90;;;;;;5063249;28;20028;-63
2023/01/25 12:15:58;;;;;;;102.63;43.70;;;2.30;99.90;;;;;;5063251;28;20035;-63
2023/01/25 12:18:33;;;;;;;109.10;47.33;;;1.90;99.90;;;;;;5062951;28;20404;-63
2023/01/25 12:21:14;;;;;;;106.43;45.13;;;1.80;99.90;;;;;;5063144;28;20094;-63
2023/01/25 12:24:10;;;;;;;102.13;44.00;;;2.10;99.90;;;;;;5080446;28;20331;-64
2023/01/25 12:27:06;;;;;;;96.28;43.80;;;2.30;99.90;;;;;;5046218;28;20067;-63
2023/01/25 12:29:45;;;;;;;93.70;42.55;;;2.10;99.90;;;;;;5080802;28;20037;-63
2023/01/25 12:32:38;;;;;;;97.45;43.45;;;1.60;99.90;;;;;;5062729;28;20032;-63
2023/01/25 12:35:27;;;;;;;95.15;42.15;;;1.40;99.90;;;;;;5080233;28;20079;-63
2023/01/25 12:37:59;;;;;;;96.68;42.60;;;1.20;99.90;;;;;;5062547;28;20404;-62
2023/01/25 12:41:03;;;;;;;99.85;43.28;;;1.20;99.90;;;;;;5080015;28;20025;-62
2023/01/25 12:43:43;;;;;;;96.95;42.78;;;1.10;99.90;;;;;;5009864;28;20045;-63
2023/01/25 12:46:27;;;;;;;95.28;42.17;;;1.10;99.90;;;;;;5062779;28;20072;-62
2023/01/25 12:48:58;;;;;;;103.40;41.83;;;1.20;99.90;;;;;;5079882;28;20090;-63
2023/01/25 12:51:32;;;;;;;96.50;42.13;;;1.40;99.90;;;;;;5079587;28;20051;-62
2023/01/25 12:54:02;;;;;;;91.40;40.33;;;1.40;99.90;;;;;;5079762;28;20037;-63
2023/01/25 12:57:14;;;;;;;93.78;41.47;;;1.70;99.90;;;;;;5062359;28;20029;-63
2023/01/25 13:00:24;;;;;;;88.45;40.67;;;2.10;99.90;;;;;;5052808;28;20040;-62
2023/01/25 13:02:52;;;;;;;94.75;40.53;;;2.30;99.90;;;;;;5061553;28;20042;-62
2023/01/25 13:05:36;;;;;;;90.53;40.78;;;2.30;99.90;;;;;;5079753;28;20090;-64
2023/01/25 13:08:19;;;;;;;99.30;43.38;;;2.40;99.90;;;;;;5045450;28;20024;-63